sensor_id;sensor_type;location;lat;lon;timestamp;P1;durP1;ratioP1;P2;durP2;ratioP2
1799;SDS011;919;48.274;12.292;2023-06-10T00:00:39;7.33;;;6.67;;
1799;SDS011;919;48.274;12.292;2023-06-10T00:03:07;9.07;;;8.27;;
1799;SDS011;919;48.274;12.292;2023-06-10T00:05:35;8.37;;;7.57;;
1799;SDS011;919;48.274;12.292;2023-06-10T00:08:05;7.90;;;7.20;;
1799;SDS011;919;48.274;12.292;2023-06-10T00:10:33;7.63;;;6.80;;
1799;SDS011;919;48.274;12.292;2023-06-10T00:13:00;8.20;;;7.43;;
1799;SDS011;919;48.274;12.292;2023-06-10T00:15:27;7.10;;;6.40;;
1799;SDS011;919;48.274;12.292;2023-06-10T00:17:54;8.80;;;7.87;;
1799;SDS011;919;48.274;12.292;2023-06-10T00:20:21;7.40;;;6.80;;
1799;SDS011;919;48.274;12.292;2023-06-10T00:22:50;7.23;;;6.63;;
1799;SDS011;919;48.274;12.292;2023-06-10T00:25:17;8.70;;;7.90;;
1799;SDS011;919;48.274;12.292;2023-06-10T00:27:44;8.97;;;8.07;;
1799;SDS011;919;48.274;12.292;2023-06-10T00:30:11;9.03;;;8.20;;
1799;SDS011;919;48.274;12.292;2023-06-10T00:32:38;7.50;;;6.80;;
1799;SDS011;919;48.274;12.292;2023-06-10T00:35:05;7.30;;;6.70;;
1799;SDS011;919;48.274;12.292;2023-06-10T00:37:33;8.07;;;7.23;;
1799;SDS011;919;48.274;12.292;2023-06-10T00:40:02;9.23;;;8.37;;
1799;SDS011;919;48.274;12.292;2023-06-10T00:42:29;7.93;;;7.17;;
1799;SDS011;919;48.274;12.292;2023-06-10T00:44:56;8.60;;;7.90;;
1799;SDS011;919;48.274;12.292;2023-06-10T00:47:23;9.50;;;8.60;;
1799;SDS011;919;48.274;12.292;2023-06-10T00:49:51;7.97;;;7.30;;
1799;SDS011;919;48.274;12.292;2023-06-10T00:52:18;7.60;;;7.00;;
1799;SDS011;919;48.274;12.292;2023-06-10T00:54:45;8.10;;;7.30;;
1799;SDS011;919;48.274;12.292;2023-06-10T00:57:13;7.73;;;7.03;;
1799;SDS011;919;48.274;12.292;2023-06-10T00:59:40;8.83;;;6.60;;
1799;SDS011;919;48.274;12.292;2023-06-10T01:02:09;7.13;;;6.43;;
1799;SDS011;919;48.274;12.292;2023-06-10T01:04:36;7.53;;;6.70;;
1799;SDS011;919;48.274;12.292;2023-06-10T01:07:05;8.20;;;7.50;;
1799;SDS011;919;48.274;12.292;2023-06-10T01:09:42;7.50;;;6.70;;
1799;SDS011;919;48.274;12.292;2023-06-10T01:12:19;6.87;;;6.27;;
1799;SDS011;919;48.274;12.292;2023-06-10T01:14:52;9.67;;;8.77;;
1799;SDS011;919;48.274;12.292;2023-06-10T01:17:21;8.70;;;7.90;;
1799;SDS011;919;48.274;12.292;2023-06-10T01:19:52;9.93;;;8.90;;
1799;SDS011;919;48.274;12.292;2023-06-10T01:22:22;11.67;;;9.63;;
1799;SDS011;919;48.274;12.292;2023-06-10T01:24:49;13.53;;;11.00;;
1799;SDS011;919;48.274;12.292;2023-06-10T01:27:16;9.90;;;8.97;;
1799;SDS011;919;48.274;12.292;2023-06-10T01:29:50;11.20;;;8.70;;
1799;SDS011;919;48.274;12.292;2023-06-10T01:32:23;8.87;;;7.97;;
1799;SDS011;919;48.274;12.292;2023-06-10T01:34:56;9.73;;;7.80;;
1799;SDS011;919;48.274;12.292;2023-06-10T01:37:25;11.53;;;9.67;;
1799;SDS011;919;48.274;12.292;2023-06-10T01:39:53;8.10;;;7.30;;
1799;SDS011;919;48.274;12.292;2023-06-10T01:42:22;11.93;;;10.20;;
1799;SDS011;919;48.274;12.292;2023-06-10T01:44:49;14.07;;;11.77;;
1799;SDS011;919;48.274;12.292;2023-06-10T01:47:16;16.30;;;10.67;;
1799;SDS011;919;48.274;12.292;2023-06-10T01:49:43;11.63;;;9.93;;
1799;SDS011;919;48.274;12.292;2023-06-10T01:52:10;12.47;;;9.27;;
1799;SDS011;919;48.274;12.292;2023-06-10T01:54:38;9.73;;;8.70;;
1799;SDS011;919;48.274;12.292;2023-06-10T01:57:05;10.27;;;8.87;;
1799;SDS011;919;48.274;12.292;2023-06-10T01:59:32;12.13;;;9.63;;
1799;SDS011;919;48.274;12.292;2023-06-10T02:01:58;13.53;;;10.93;;
1799;SDS011;919;48.274;12.292;2023-06-10T02:04:25;12.10;;;9.37;;
1799;SDS011;919;48.274;12.292;2023-06-10T02:06:52;9.40;;;8.40;;
1799;SDS011;919;48.274;12.292;2023-06-10T02:09:20;11.30;;;8.53;;
1799;SDS011;919;48.274;12.292;2023-06-10T02:11:49;11.70;;;9.70;;
1799;SDS011;919;48.274;12.292;2023-06-10T02:14:15;11.83;;;9.37;;
1799;SDS011;919;48.274;12.292;2023-06-10T02:16:42;11.47;;;9.23;;
1799;SDS011;919;48.274;12.292;2023-06-10T02:19:10;10.60;;;8.30;;
1799;SDS011;919;48.274;12.292;2023-06-10T02:21:37;8.97;;;7.10;;
1799;SDS011;919;48.274;12.292;2023-06-10T02:24:05;11.47;;;8.40;;
1799;SDS011;919;48.274;12.292;2023-06-10T02:26:32;10.20;;;8.90;;
1799;SDS011;919;48.274;12.292;2023-06-10T02:29:00;10.00;;;8.33;;
1799;SDS011;919;48.274;12.292;2023-06-10T02:31:28;10.57;;;9.00;;
1799;SDS011;919;48.274;12.292;2023-06-10T02:33:55;9.53;;;8.60;;
1799;SDS011;919;48.274;12.292;2023-06-10T02:36:21;12.60;;;11.20;;
1799;SDS011;919;48.274;12.292;2023-06-10T02:38:49;11.30;;;9.47;;
1799;SDS011;919;48.274;12.292;2023-06-10T02:41:16;12.27;;;9.60;;
1799;SDS011;919;48.274;12.292;2023-06-10T02:43:42;9.43;;;8.43;;
1799;SDS011;919;48.274;12.292;2023-06-10T02:46:11;9.97;;;8.90;;
1799;SDS011;919;48.274;12.292;2023-06-10T02:48:40;9.57;;;8.60;;
1799;SDS011;919;48.274;12.292;2023-06-10T02:51:08;10.50;;;9.07;;
1799;SDS011;919;48.274;12.292;2023-06-10T02:53:35;10.73;;;9.53;;
1799;SDS011;919;48.274;12.292;2023-06-10T02:56:02;11.50;;;10.23;;
1799;SDS011;919;48.274;12.292;2023-06-10T02:58:29;11.33;;;9.97;;
1799;SDS011;919;48.274;12.292;2023-06-10T03:00:56;10.90;;;8.13;;
1799;SDS011;919;48.274;12.292;2023-06-10T03:03:24;8.23;;;7.43;;
1799;SDS011;919;48.274;12.292;2023-06-10T03:05:53;10.00;;;8.80;;
1799;SDS011;919;48.274;12.292;2023-06-10T03:08:21;11.60;;;10.40;;
1799;SDS011;919;48.274;12.292;2023-06-10T03:10:48;10.13;;;9.00;;
1799;SDS011;919;48.274;12.292;2023-06-10T03:13:15;13.40;;;10.60;;
1799;SDS011;919;48.274;12.292;2023-06-10T03:15:42;10.70;;;9.70;;
1799;SDS011;919;48.274;12.292;2023-06-10T03:18:09;11.07;;;8.80;;
1799;SDS011;919;48.274;12.292;2023-06-10T03:20:37;10.30;;;8.50;;
1799;SDS011;919;48.274;12.292;2023-06-10T03:23:05;11.27;;;8.70;;
1799;SDS011;919;48.274;12.292;2023-06-10T03:25:32;9.40;;;8.50;;
1799;SDS011;919;48.274;12.292;2023-06-10T03:27:59;9.97;;;8.97;;
1799;SDS011;919;48.274;12.292;2023-06-10T03:30:26;10.60;;;9.50;;
1799;SDS011;919;48.274;12.292;2023-06-10T03:32:53;8.03;;;7.23;;
1799;SDS011;919;48.274;12.292;2023-06-10T03:35:20;8.20;;;7.37;;
1799;SDS011;919;48.274;12.292;2023-06-10T03:37:48;9.20;;;8.30;;
1799;SDS011;919;48.274;12.292;2023-06-10T03:40:15;9.80;;;8.17;;
1799;SDS011;919;48.274;12.292;2023-06-10T03:42:42;11.80;;;10.23;;
1799;SDS011;919;48.274;12.292;2023-06-10T03:45:09;11.10;;;9.73;;
1799;SDS011;919;48.274;12.292;2023-06-10T03:47:37;12.53;;;9.97;;
1799;SDS011;919;48.274;12.292;2023-06-10T03:50:05;11.07;;;9.80;;
1799;SDS011;919;48.274;12.292;2023-06-10T03:52:34;10.07;;;9.10;;
1799;SDS011;919;48.274;12.292;2023-06-10T03:55:02;10.47;;;9.30;;
1799;SDS011;919;48.274;12.292;2023-06-10T03:57:30;9.60;;;8.60;;
1799;SDS011;919;48.274;12.292;2023-06-10T03:59:56;10.00;;;8.97;;
1799;SDS011;919;48.274;12.292;2023-06-10T04:02:23;9.57;;;8.67;;
1799;SDS011;919;48.274;12.292;2023-06-10T04:04:50;9.23;;;8.33;;
1799;SDS011;919;48.274;12.292;2023-06-10T04:07:17;8.63;;;7.83;;
1799;SDS011;919;48.274;12.292;2023-06-10T04:09:45;10.63;;;9.60;;
1799;SDS011;919;48.274;12.292;2023-06-10T04:12:13;9.70;;;8.50;;
1799;SDS011;919;48.274;12.292;2023-06-10T04:14:41;10.10;;;9.10;;
1799;SDS011;919;48.274;12.292;2023-06-10T04:17:08;10.20;;;9.20;;
1799;SDS011;919;48.274;12.292;2023-06-10T04:19:35;12.07;;;10.33;;
1799;SDS011;919;48.274;12.292;2023-06-10T04:22:02;10.70;;;9.60;;
1799;SDS011;919;48.274;12.292;2023-06-10T04:24:30;9.77;;;8.87;;
1799;SDS011;919;48.274;12.292;2023-06-10T04:26:57;12.27;;;11.17;;
1799;SDS011;919;48.274;12.292;2023-06-10T04:29:25;9.40;;;8.40;;
1799;SDS011;919;48.274;12.292;2023-06-10T04:31:51;9.67;;;8.77;;
1799;SDS011;919;48.274;12.292;2023-06-10T04:34:18;11.67;;;10.47;;
1799;SDS011;919;48.274;12.292;2023-06-10T04:36:45;12.20;;;8.67;;
1799;SDS011;919;48.274;12.292;2023-06-10T04:39:11;10.80;;;9.70;;
1799;SDS011;919;48.274;12.292;2023-06-10T04:41:38;10.37;;;9.37;;
1799;SDS011;919;48.274;12.292;2023-06-10T04:44:05;13.37;;;9.20;;
1799;SDS011;919;48.274;12.292;2023-06-10T04:46:33;10.83;;;9.83;;
1799;SDS011;919;48.274;12.292;2023-06-10T04:49:00;10.67;;;9.60;;
1799;SDS011;919;48.274;12.292;2023-06-10T04:51:27;9.07;;;8.17;;
1799;SDS011;919;48.274;12.292;2023-06-10T04:53:54;10.03;;;9.03;;
1799;SDS011;919;48.274;12.292;2023-06-10T04:56:20;10.50;;;9.50;;
1799;SDS011;919;48.274;12.292;2023-06-10T04:58:47;10.00;;;9.10;;
1799;SDS011;919;48.274;12.292;2023-06-10T05:01:14;10.57;;;9.57;;
1799;SDS011;919;48.274;12.292;2023-06-10T05:03:42;10.20;;;9.20;;
1799;SDS011;919;48.274;12.292;2023-06-10T05:06:09;10.27;;;9.30;;
1799;SDS011;919;48.274;12.292;2023-06-10T05:08:36;9.90;;;9.00;;
1799;SDS011;919;48.274;12.292;2023-06-10T05:11:02;11.23;;;10.20;;
1799;SDS011;919;48.274;12.292;2023-06-10T05:13:29;9.90;;;8.90;;
1799;SDS011;919;48.274;12.292;2023-06-10T05:15:56;11.10;;;9.57;;
1799;SDS011;919;48.274;12.292;2023-06-10T05:18:22;9.43;;;8.53;;
1799;SDS011;919;48.274;12.292;2023-06-10T05:20:50;9.13;;;8.23;;
1799;SDS011;919;48.274;12.292;2023-06-10T05:23:18;10.33;;;9.33;;
1799;SDS011;919;48.274;12.292;2023-06-10T05:25:45;8.63;;;7.87;;
1799;SDS011;919;48.274;12.292;2023-06-10T05:28:12;11.40;;;9.20;;
1799;SDS011;919;48.274;12.292;2023-06-10T05:30:39;9.40;;;8.10;;
1799;SDS011;919;48.274;12.292;2023-06-10T05:33:06;11.03;;;9.93;;
1799;SDS011;919;48.274;12.292;2023-06-10T05:35:33;10.30;;;9.30;;
1799;SDS011;919;48.274;12.292;2023-06-10T05:38:01;11.87;;;10.77;;
1799;SDS011;919;48.274;12.292;2023-06-10T05:40:28;10.07;;;9.17;;
1799;SDS011;919;48.274;12.292;2023-06-10T05:42:54;9.33;;;8.53;;
1799;SDS011;919;48.274;12.292;2023-06-10T05:45:21;9.00;;;8.20;;
1799;SDS011;919;48.274;12.292;2023-06-10T05:47:48;10.13;;;9.13;;
1799;SDS011;919;48.274;12.292;2023-06-10T05:50:15;10.50;;;9.50;;
1799;SDS011;919;48.274;12.292;2023-06-10T05:52:41;10.83;;;9.77;;
1799;SDS011;919;48.274;12.292;2023-06-10T05:55:10;9.80;;;8.90;;
1799;SDS011;919;48.274;12.292;2023-06-10T05:57:36;10.27;;;9.17;;
1799;SDS011;919;48.274;12.292;2023-06-10T06:00:03;9.33;;;8.50;;
1799;SDS011;919;48.274;12.292;2023-06-10T06:02:31;10.07;;;9.17;;
1799;SDS011;919;48.274;12.292;2023-06-10T06:04:58;12.30;;;10.40;;
1799;SDS011;919;48.274;12.292;2023-06-10T06:07:25;9.77;;;8.77;;
1799;SDS011;919;48.274;12.292;2023-06-10T06:09:51;10.13;;;9.13;;
1799;SDS011;919;48.274;12.292;2023-06-10T06:12:19;9.13;;;8.20;;
1799;SDS011;919;48.274;12.292;2023-06-10T06:14:46;10.97;;;9.50;;
1799;SDS011;919;48.274;12.292;2023-06-10T06:17:14;10.17;;;9.17;;
1799;SDS011;919;48.274;12.292;2023-06-10T06:19:40;8.67;;;7.87;;
1799;SDS011;919;48.274;12.292;2023-06-10T06:22:08;9.33;;;8.37;;
1799;SDS011;919;48.274;12.292;2023-06-10T06:24:35;9.80;;;8.90;;
1799;SDS011;919;48.274;12.292;2023-06-10T06:27:01;10.03;;;9.00;;
1799;SDS011;919;48.274;12.292;2023-06-10T06:29:30;11.47;;;9.37;;
1799;SDS011;919;48.274;12.292;2023-06-10T06:31:57;9.80;;;8.80;;
1799;SDS011;919;48.274;12.292;2023-06-10T06:34:23;15.20;;;9.77;;
1799;SDS011;919;48.274;12.292;2023-06-10T06:36:50;11.37;;;9.83;;
1799;SDS011;919;48.274;12.292;2023-06-10T06:39:17;11.83;;;10.40;;
1799;SDS011;919;48.274;12.292;2023-06-10T06:41:43;10.20;;;9.30;;
1799;SDS011;919;48.274;12.292;2023-06-10T06:44:10;9.80;;;8.80;;
1799;SDS011;919;48.274;12.292;2023-06-10T06:46:38;10.33;;;9.23;;
1799;SDS011;919;48.274;12.292;2023-06-10T06:49:05;11.13;;;10.13;;
1799;SDS011;919;48.274;12.292;2023-06-10T06:51:31;10.57;;;9.50;;
1799;SDS011;919;48.274;12.292;2023-06-10T06:53:58;11.30;;;10.10;;
1799;SDS011;919;48.274;12.292;2023-06-10T06:56:25;10.03;;;9.03;;
1799;SDS011;919;48.274;12.292;2023-06-10T06:58:53;11.37;;;10.23;;
1799;SDS011;919;48.274;12.292;2023-06-10T07:01:20;8.23;;;7.43;;
1799;SDS011;919;48.274;12.292;2023-06-10T07:03:48;9.40;;;8.50;;
1799;SDS011;919;48.274;12.292;2023-06-10T07:06:14;9.00;;;7.80;;
1799;SDS011;919;48.274;12.292;2023-06-10T07:08:41;8.37;;;7.57;;
1799;SDS011;919;48.274;12.292;2023-06-10T07:11:08;9.27;;;8.37;;
1799;SDS011;919;48.274;12.292;2023-06-10T07:13:34;9.90;;;8.90;;
1799;SDS011;919;48.274;12.292;2023-06-10T07:16:01;9.40;;;8.00;;
1799;SDS011;919;48.274;12.292;2023-06-10T07:18:28;9.60;;;8.70;;
1799;SDS011;919;48.274;12.292;2023-06-10T07:20:56;9.40;;;8.50;;
1799;SDS011;919;48.274;12.292;2023-06-10T07:23:23;8.13;;;7.37;;
1799;SDS011;919;48.274;12.292;2023-06-10T07:25:50;8.10;;;7.30;;
1799;SDS011;919;48.274;12.292;2023-06-10T07:28:16;7.07;;;6.37;;
1799;SDS011;919;48.274;12.292;2023-06-10T07:30:43;7.30;;;6.60;;
1799;SDS011;919;48.274;12.292;2023-06-10T07:33:10;6.47;;;5.20;;
1799;SDS011;919;48.274;12.292;2023-06-10T07:35:37;7.40;;;6.70;;
1799;SDS011;919;48.274;12.292;2023-06-10T07:38:05;8.30;;;7.43;;
1799;SDS011;919;48.274;12.292;2023-06-10T07:40:31;10.13;;;8.03;;
1799;SDS011;919;48.274;12.292;2023-06-10T07:42:58;8.37;;;7.57;;
1799;SDS011;919;48.274;12.292;2023-06-10T07:45:25;8.93;;;7.30;;
1799;SDS011;919;48.274;12.292;2023-06-10T07:47:51;7.70;;;6.97;;
1799;SDS011;919;48.274;12.292;2023-06-10T07:50:18;8.17;;;7.40;;
1799;SDS011;919;48.274;12.292;2023-06-10T07:52:45;10.40;;;8.90;;
1799;SDS011;919;48.274;12.292;2023-06-10T07:55:13;8.13;;;7.33;;
1799;SDS011;919;48.274;12.292;2023-06-10T07:57:40;7.03;;;6.43;;
1799;SDS011;919;48.274;12.292;2023-06-10T08:00:08;7.60;;;6.90;;
1799;SDS011;919;48.274;12.292;2023-06-10T08:02:35;9.20;;;8.30;;
1799;SDS011;919;48.274;12.292;2023-06-10T08:05:02;8.80;;;7.90;;
1799;SDS011;919;48.274;12.292;2023-06-10T08:07:30;9.10;;;7.83;;
1799;SDS011;919;48.274;12.292;2023-06-10T08:09:56;12.10;;;8.00;;
1799;SDS011;919;48.274;12.292;2023-06-10T08:12:24;7.40;;;6.60;;
1799;SDS011;919;48.274;12.292;2023-06-10T08:14:51;6.50;;;5.90;;
1799;SDS011;919;48.274;12.292;2023-06-10T08:17:18;6.00;;;5.50;;
1799;SDS011;919;48.274;12.292;2023-06-10T08:19:45;6.67;;;6.07;;
1799;SDS011;919;48.274;12.292;2023-06-10T08:22:12;6.87;;;6.20;;
1799;SDS011;919;48.274;12.292;2023-06-10T08:24:39;6.37;;;5.77;;
1799;SDS011;919;48.274;12.292;2023-06-10T08:27:06;6.70;;;5.90;;
1799;SDS011;919;48.274;12.292;2023-06-10T08:29:34;6.10;;;5.50;;
1799;SDS011;919;48.274;12.292;2023-06-10T08:32:01;6.83;;;5.93;;
1799;SDS011;919;48.274;12.292;2023-06-10T08:34:28;6.33;;;5.70;;
1799;SDS011;919;48.274;12.292;2023-06-10T08:36:55;7.23;;;6.60;;
1799;SDS011;919;48.274;12.292;2023-06-10T08:39:21;6.80;;;5.80;;
1799;SDS011;919;48.274;12.292;2023-06-10T08:41:51;6.43;;;5.83;;
1799;SDS011;919;48.274;12.292;2023-06-10T08:44:25;7.27;;;6.60;;
1799;SDS011;919;48.274;12.292;2023-06-10T08:46:57;6.87;;;6.27;;
1799;SDS011;919;48.274;12.292;2023-06-10T08:49:26;7.90;;;6.93;;
1799;SDS011;919;48.274;12.292;2023-06-10T08:51:58;6.40;;;5.83;;
1799;SDS011;919;48.274;12.292;2023-06-10T08:54:27;7.40;;;6.57;;
1799;SDS011;919;48.274;12.292;2023-06-10T08:56:57;5.83;;;5.33;;
1799;SDS011;919;48.274;12.292;2023-06-10T08:59:25;7.10;;;6.50;;
1799;SDS011;919;48.274;12.292;2023-06-10T09:01:52;5.73;;;5.23;;
1799;SDS011;919;48.274;12.292;2023-06-10T09:04:21;6.80;;;6.20;;
1799;SDS011;919;48.274;12.292;2023-06-10T09:06:50;6.03;;;5.50;;
1799;SDS011;919;48.274;12.292;2023-06-10T09:09:18;6.40;;;5.80;;
1799;SDS011;919;48.274;12.292;2023-06-10T09:11:45;5.70;;;5.30;;
1799;SDS011;919;48.274;12.292;2023-06-10T09:14:12;5.50;;;5.10;;
1799;SDS011;919;48.274;12.292;2023-06-10T09:16:41;6.20;;;5.60;;
1799;SDS011;919;48.274;12.292;2023-06-10T09:19:08;4.90;;;4.50;;
1799;SDS011;919;48.274;12.292;2023-06-10T09:21:37;5.10;;;4.70;;
1799;SDS011;919;48.274;12.292;2023-06-10T09:24:05;5.10;;;4.70;;
1799;SDS011;919;48.274;12.292;2023-06-10T09:26:33;5.10;;;4.70;;
1799;SDS011;919;48.274;12.292;2023-06-10T09:29:03;5.67;;;5.23;;
1799;SDS011;919;48.274;12.292;2023-06-10T09:31:31;5.00;;;4.60;;
1799;SDS011;919;48.274;12.292;2023-06-10T09:34:07;5.07;;;4.67;;
1799;SDS011;919;48.274;12.292;2023-06-10T09:36:36;5.70;;;5.20;;
1799;SDS011;919;48.274;12.292;2023-06-10T09:39:05;5.10;;;4.70;;
1799;SDS011;919;48.274;12.292;2023-06-10T09:41:41;5.07;;;4.67;;
1799;SDS011;919;48.274;12.292;2023-06-10T09:44:09;4.60;;;4.30;;
1799;SDS011;919;48.274;12.292;2023-06-10T09:46:41;4.83;;;4.43;;
1799;SDS011;919;48.274;12.292;2023-06-10T09:49:12;5.73;;;5.13;;
1799;SDS011;919;48.274;12.292;2023-06-10T09:51:50;5.63;;;5.13;;
1799;SDS011;919;48.274;12.292;2023-06-10T09:54:20;5.70;;;4.97;;
1799;SDS011;919;48.274;12.292;2023-06-10T09:56:48;4.50;;;4.10;;
1799;SDS011;919;48.274;12.292;2023-06-10T09:59:16;6.33;;;4.37;;
1799;SDS011;919;48.274;12.292;2023-06-10T10:01:57;5.30;;;4.90;;
1799;SDS011;919;48.274;12.292;2023-06-10T10:04:26;5.83;;;5.33;;
1799;SDS011;919;48.274;12.292;2023-06-10T10:06:55;6.10;;;5.60;;
1799;SDS011;919;48.274;12.292;2023-06-10T10:09:24;5.87;;;5.40;;
1799;SDS011;919;48.274;12.292;2023-06-10T10:11:51;5.47;;;4.97;;
1799;SDS011;919;48.274;12.292;2023-06-10T10:14:22;5.63;;;5.13;;
1799;SDS011;919;48.274;12.292;2023-06-10T10:16:50;5.97;;;5.47;;
1799;SDS011;919;48.274;12.292;2023-06-10T10:19:28;6.53;;;5.67;;
1799;SDS011;919;48.274;12.292;2023-06-10T10:22:01;6.07;;;5.57;;
1799;SDS011;919;48.274;12.292;2023-06-10T10:24:36;6.70;;;4.90;;
1799;SDS011;919;48.274;12.292;2023-06-10T10:27:14;6.00;;;5.50;;
1799;SDS011;919;48.274;12.292;2023-06-10T10:29:46;5.90;;;5.40;;
1799;SDS011;919;48.274;12.292;2023-06-10T10:32:15;5.47;;;4.97;;
1799;SDS011;919;48.274;12.292;2023-06-10T10:34:48;6.20;;;5.70;;
1799;SDS011;919;48.274;12.292;2023-06-10T10:37:21;5.70;;;5.30;;
1799;SDS011;919;48.274;12.292;2023-06-10T10:39:50;5.47;;;5.00;;
1799;SDS011;919;48.274;12.292;2023-06-10T10:42:18;5.97;;;5.47;;
1799;SDS011;919;48.274;12.292;2023-06-10T10:44:46;6.80;;;6.20;;
1799;SDS011;919;48.274;12.292;2023-06-10T10:47:18;6.60;;;5.70;;
1799;SDS011;919;48.274;12.292;2023-06-10T10:49:48;7.20;;;6.50;;
1799;SDS011;919;48.274;12.292;2023-06-10T10:52:18;6.90;;;6.20;;
1799;SDS011;919;48.274;12.292;2023-06-10T10:54:48;7.40;;;6.70;;
1799;SDS011;919;48.274;12.292;2023-06-10T10:57:16;7.50;;;6.80;;
1799;SDS011;919;48.274;12.292;2023-06-10T10:59:45;6.80;;;6.20;;
1799;SDS011;919;48.274;12.292;2023-06-10T11:02:32;7.23;;;6.63;;
1799;SDS011;919;48.274;12.292;2023-06-10T11:05:10;7.20;;;6.17;;
1799;SDS011;919;48.274;12.292;2023-06-10T11:07:41;7.20;;;6.60;;
1799;SDS011;919;48.274;12.292;2023-06-10T11:10:27;6.77;;;6.17;;
1799;SDS011;919;48.274;12.292;2023-06-10T11:12:56;7.37;;;6.80;;
1799;SDS011;919;48.274;12.292;2023-06-10T11:15:24;7.70;;;7.00;;
1799;SDS011;919;48.274;12.292;2023-06-10T11:18:10;6.57;;;6.00;;
1799;SDS011;919;48.274;12.292;2023-06-10T11:20:52;8.10;;;7.30;;
1799;SDS011;919;48.274;12.292;2023-06-10T11:23:34;6.67;;;5.87;;
1799;SDS011;919;48.274;12.292;2023-06-10T11:26:29;7.37;;;6.77;;
1799;SDS011;919;48.274;12.292;2023-06-10T11:29:07;5.63;;;5.13;;
1799;SDS011;919;48.274;12.292;2023-06-10T11:31:40;6.10;;;5.60;;
1799;SDS011;919;48.274;12.292;2023-06-10T11:34:09;6.63;;;6.13;;
1799;SDS011;919;48.274;12.292;2023-06-10T11:36:37;7.00;;;6.40;;
1799;SDS011;919;48.274;12.292;2023-06-10T11:39:07;5.40;;;5.00;;
1799;SDS011;919;48.274;12.292;2023-06-10T11:41:37;5.60;;;5.20;;
1799;SDS011;919;48.274;12.292;2023-06-10T11:44:07;5.93;;;5.43;;
1799;SDS011;919;48.274;12.292;2023-06-10T11:46:36;6.07;;;5.57;;
1799;SDS011;919;48.274;12.292;2023-06-10T11:49:05;4.70;;;4.30;;
1799;SDS011;919;48.274;12.292;2023-06-10T11:51:35;6.10;;;5.60;;
1799;SDS011;919;48.274;12.292;2023-06-10T11:54:04;5.77;;;5.27;;
1799;SDS011;919;48.274;12.292;2023-06-10T11:56:36;5.70;;;5.10;;
1799;SDS011;919;48.274;12.292;2023-06-10T11:59:05;5.33;;;4.93;;
1799;SDS011;919;48.274;12.292;2023-06-10T12:01:34;5.70;;;5.20;;
1799;SDS011;919;48.274;12.292;2023-06-10T12:04:03;5.63;;;5.00;;
1799;SDS011;919;48.274;12.292;2023-06-10T12:06:37;5.20;;;4.80;;
1799;SDS011;919;48.274;12.292;2023-06-10T12:09:05;5.80;;;5.40;;
1799;SDS011;919;48.274;12.292;2023-06-10T12:11:33;5.47;;;5.00;;
1799;SDS011;919;48.274;12.292;2023-06-10T12:14:03;5.50;;;5.10;;
1799;SDS011;919;48.274;12.292;2023-06-10T12:16:31;5.43;;;5.03;;
1799;SDS011;919;48.274;12.292;2023-06-10T12:19:02;12.03;;;4.53;;
1799;SDS011;919;48.274;12.292;2023-06-10T12:21:31;4.90;;;4.10;;
1799;SDS011;919;48.274;12.292;2023-06-10T12:24:01;4.40;;;4.00;;
1799;SDS011;919;48.274;12.292;2023-06-10T12:26:38;3.40;;;3.20;;
1799;SDS011;919;48.274;12.292;2023-06-10T12:29:18;4.50;;;4.20;;
1799;SDS011;919;48.274;12.292;2023-06-10T12:31:58;4.20;;;3.90;;
1799;SDS011;919;48.274;12.292;2023-06-10T12:34:30;4.40;;;4.10;;
1799;SDS011;919;48.274;12.292;2023-06-10T12:36:58;4.60;;;4.20;;
1799;SDS011;919;48.274;12.292;2023-06-10T12:39:26;4.20;;;3.80;;
1799;SDS011;919;48.274;12.292;2023-06-10T12:41:53;3.90;;;3.60;;
1799;SDS011;919;48.274;12.292;2023-06-10T12:44:30;4.00;;;3.70;;
1799;SDS011;919;48.274;12.292;2023-06-10T12:47:00;3.73;;;3.43;;
1799;SDS011;919;48.274;12.292;2023-06-10T12:49:29;3.70;;;3.03;;
1799;SDS011;919;48.274;12.292;2023-06-10T12:51:57;4.13;;;3.83;;
1799;SDS011;919;48.274;12.292;2023-06-10T12:54:23;3.83;;;3.63;;
1799;SDS011;919;48.274;12.292;2023-06-10T12:56:50;5.17;;;3.97;;
1799;SDS011;919;48.274;12.292;2023-06-10T12:59:19;3.57;;;3.37;;
1799;SDS011;919;48.274;12.292;2023-06-10T13:01:51;4.73;;;4.43;;
1799;SDS011;919;48.274;12.292;2023-06-10T13:04:18;5.47;;;5.07;;
1799;SDS011;919;48.274;12.292;2023-06-10T13:06:46;5.70;;;5.20;;
1799;SDS011;919;48.274;12.292;2023-06-10T13:09:14;5.53;;;5.10;;
1799;SDS011;919;48.274;12.292;2023-06-10T13:11:41;5.40;;;5.00;;
1799;SDS011;919;48.274;12.292;2023-06-10T13:14:10;6.00;;;5.50;;
1799;SDS011;919;48.274;12.292;2023-06-10T13:16:38;6.07;;;5.57;;
1799;SDS011;919;48.274;12.292;2023-06-10T13:19:06;6.07;;;5.47;;
1799;SDS011;919;48.274;12.292;2023-06-10T13:21:33;6.60;;;6.03;;
1799;SDS011;919;48.274;12.292;2023-06-10T13:24:00;5.57;;;5.07;;
1799;SDS011;919;48.274;12.292;2023-06-10T13:26:28;5.37;;;4.97;;
1799;SDS011;919;48.274;12.292;2023-06-10T13:28:56;5.47;;;5.07;;
1799;SDS011;919;48.274;12.292;2023-06-10T13:31:23;6.03;;;5.53;;
1799;SDS011;919;48.274;12.292;2023-06-10T13:33:51;6.10;;;5.63;;
1799;SDS011;919;48.274;12.292;2023-06-10T13:36:19;6.73;;;6.20;;
1799;SDS011;919;48.274;12.292;2023-06-10T13:38:46;5.40;;;5.00;;
1799;SDS011;919;48.274;12.292;2023-06-10T13:41:13;5.60;;;5.10;;
1799;SDS011;919;48.274;12.292;2023-06-10T13:43:42;5.33;;;4.93;;
1799;SDS011;919;48.274;12.292;2023-06-10T13:46:09;5.47;;;5.07;;
1799;SDS011;919;48.274;12.292;2023-06-10T13:48:38;5.43;;;5.03;;
1799;SDS011;919;48.274;12.292;2023-06-10T13:51:05;5.73;;;5.23;;
1799;SDS011;919;48.274;12.292;2023-06-10T13:53:35;6.40;;;5.80;;
1799;SDS011;919;48.274;12.292;2023-06-10T13:56:03;7.43;;;6.80;;
1799;SDS011;919;48.274;12.292;2023-06-10T13:58:30;6.63;;;6.13;;
1799;SDS011;919;48.274;12.292;2023-06-10T14:00:58;6.07;;;5.57;;
1799;SDS011;919;48.274;12.292;2023-06-10T14:03:26;5.80;;;5.37;;
1799;SDS011;919;48.274;12.292;2023-06-10T14:05:53;6.03;;;5.63;;
1799;SDS011;919;48.274;12.292;2023-06-10T14:08:19;6.03;;;5.63;;
1799;SDS011;919;48.274;12.292;2023-06-10T14:10:47;6.20;;;5.70;;
1799;SDS011;919;48.274;12.292;2023-06-10T14:13:15;6.73;;;6.13;;
1799;SDS011;919;48.274;12.292;2023-06-10T14:15:42;5.50;;;5.10;;
1799;SDS011;919;48.274;12.292;2023-06-10T14:18:09;6.70;;;6.10;;
1799;SDS011;919;48.274;12.292;2023-06-10T14:20:36;6.80;;;6.30;;
1799;SDS011;919;48.274;12.292;2023-06-10T14:23:03;6.43;;;5.83;;
1799;SDS011;919;48.274;12.292;2023-06-10T14:25:29;6.30;;;5.80;;
1799;SDS011;919;48.274;12.292;2023-06-10T14:27:57;7.53;;;6.83;;
1799;SDS011;919;48.274;12.292;2023-06-10T14:30:24;5.73;;;5.33;;
1799;SDS011;919;48.274;12.292;2023-06-10T14:32:51;6.30;;;5.80;;
1799;SDS011;919;48.274;12.292;2023-06-10T14:35:17;7.27;;;6.73;;
1799;SDS011;919;48.274;12.292;2023-06-10T14:37:45;7.73;;;7.13;;
1799;SDS011;919;48.274;12.292;2023-06-10T14:40:12;6.90;;;6.10;;
1799;SDS011;919;48.274;12.292;2023-06-10T14:42:38;6.30;;;5.80;;
1799;SDS011;919;48.274;12.292;2023-06-10T14:45:07;6.80;;;6.20;;
1799;SDS011;919;48.274;12.292;2023-06-10T14:47:35;7.30;;;6.70;;
1799;SDS011;919;48.274;12.292;2023-06-10T14:50:01;7.80;;;7.00;;
1799;SDS011;919;48.274;12.292;2023-06-10T14:52:28;7.00;;;6.50;;
1799;SDS011;919;48.274;12.292;2023-06-10T14:54:55;7.17;;;6.57;;
1799;SDS011;919;48.274;12.292;2023-06-10T14:57:22;6.60;;;6.07;;
1799;SDS011;919;48.274;12.292;2023-06-10T14:59:48;6.60;;;6.00;;
1799;SDS011;919;48.274;12.292;2023-06-10T15:02:16;6.83;;;6.23;;
1799;SDS011;919;48.274;12.292;2023-06-10T15:04:43;5.53;;;5.13;;
1799;SDS011;919;48.274;12.292;2023-06-10T15:07:10;6.47;;;5.97;;
1799;SDS011;919;48.274;12.292;2023-06-10T15:09:36;6.27;;;5.77;;
1799;SDS011;919;48.274;12.292;2023-06-10T15:12:03;5.90;;;5.40;;
1799;SDS011;919;48.274;12.292;2023-06-10T15:14:31;6.90;;;6.30;;
1799;SDS011;919;48.274;12.292;2023-06-10T15:17:02;5.47;;;5.03;;